PWSweather.com
Personal Weather Stations
Station Observations
ABQWX
Albuquerque, NM 87110

Albuquerque, NM 87110

Lat: 35.1305, Lon: -106.58571

Elevation: 5210

Station Type: LaCrosse

http://www.albuquerqueweather.info/

High Low Average
Temperature 44.8°F7.1°F 31.3°F-0.4°F 37.4°F3.0°F
Dew Point 26.8°F-2.9°F 22.2°F-5.4°F 24.6°F-4.1°F
Winds 8.4 mph WNW13.5 mph WNW 0.2 mph 0.3 mph 3.1 mph 5.0 mph
Wind Gusts 12.8 mph20.6 mph 0.9 mph1.4 mph 5.6 mph9.0 mph
Humidity 75% 44% 61%
Pressure 30.22 in1023.40 in 30.13 in1020.30 in -
Precipitation 0.00 in0.00 in - -
Hour Temp Dew Point Humidity Winds Wind Gusts Pressure Precip Precip Rate Daily Precip Total
12:00 AM 34.5°F1.4°C 26.8°F-2.9°C 73% 1.2 mph NW1.9 kmh NW 3.4 mph5.5 kmh 30.15 in1021.0 mb 0.00 in0.0 mm 0.00 in/hr0.0 mm/hr 0.00 in0.0 mm
01:00 AM 34.5°F1.4°C 26.1°F-3.3°C 71% 0.7 mph SW1.1 kmh SW 1.3 mph2.1 kmh 30.13 in1020.3 mb 0.00 in0.0 mm 0.00 in/hr0.0 mm/hr 0.00 in0.0 mm
02:00 AM 33.3°F0.7°C 26.2°F-3.2°C 75% 1.2 mph NW1.9 kmh NW 4.0 mph6.4 kmh 30.15 in1021.0 mb 0.00 in0.0 mm 0.00 in/hr0.0 mm/hr 0.00 in0.0 mm
03:00 AM 33.4°F0.8°C 26.0°F-3.3°C 74% 1.8 mph N2.9 kmh N 4.0 mph6.4 kmh 30.16 in1021.3 mb 0.00 in0.0 mm 0.00 in/hr0.0 mm/hr 0.00 in0.0 mm
04:00 AM 32.7°F0.4°C 25.7°F-3.5°C 75% 1.4 mph NE2.3 kmh NE 2.9 mph4.7 kmh 30.16 in1021.3 mb 0.00 in0.0 mm 0.00 in/hr0.0 mm/hr 0.00 in0.0 mm
05:00 AM 31.3°F-0.4°C 24.3°F-4.3°C 75% 0.9 mph N1.4 kmh N 3.4 mph5.5 kmh 30.15 in1021.0 mb 0.00 in0.0 mm 0.00 in/hr0.0 mm/hr 0.00 in0.0 mm
06:00 AM 32.2°F0.1°C 24.8°F-4.0°C 74% 1.5 mph N2.4 kmh N 2.7 mph4.3 kmh 30.19 in1022.4 mb 0.00 in0.0 mm 0.00 in/hr0.0 mm/hr 0.00 in0.0 mm
07:00 AM 32.7°F0.4°C 24.3°F-4.3°C 71% 0.4 mph N0.6 kmh N 1.3 mph2.1 kmh 30.20 in1022.7 mb 0.00 in0.0 mm 0.00 in/hr0.0 mm/hr 0.00 in0.0 mm
08:00 AM 32.7°F0.4°C 24.7°F-4.1°C 72% 1.9 mph N3.1 kmh N 4.7 mph7.6 kmh 30.19 in1022.4 mb 0.00 in0.0 mm 0.00 in/hr0.0 mm/hr 0.00 in0.0 mm
09:00 AM 37.0°F2.8°C 25.2°F-3.8°C 62% 3.3 mph NNW5.3 kmh NNW 5.6 mph9.0 kmh 30.21 in1023.0 mb 0.00 in0.0 mm 0.00 in/hr0.0 mm/hr 0.00 in0.0 mm
10:00 AM 39.7°F4.3°C 25.7°F-3.5°C 57% 5.5 mph NW8.9 kmh NW 9.8 mph15.8 kmh 30.22 in1023.4 mb 0.00 in0.0 mm 0.00 in/hr0.0 mm/hr 0.00 in0.0 mm
11:00 AM 41.5°F5.3°C 24.7°F-4.1°C 51% 5.9 mph NW9.5 kmh NW 9.2 mph14.8 kmh 30.21 in1023.0 mb 0.00 in0.0 mm 0.00 in/hr0.0 mm/hr 0.00 in0.0 mm
12:00 PM 42.8°F6.0°C 25.4°F-3.7°C 50% 6.9 mph NW11.1 kmh NW 10.1 mph16.3 kmh 30.19 in1022.4 mb 0.00 in0.0 mm 0.00 in/hr0.0 mm/hr 0.00 in0.0 mm
01:00 PM 44.1°F6.7°C 25.1°F-3.8°C 47% 5.6 mph NW9.0 kmh NW 11.0 mph17.7 kmh 30.17 in1021.7 mb 0.00 in0.0 mm 0.00 in/hr0.0 mm/hr 0.00 in0.0 mm
02:00 PM 44.8°F7.1°C 24.7°F-4.1°C 45% 7.3 mph NW11.7 kmh NW 12.8 mph20.6 kmh 30.16 in1021.3 mb 0.00 in0.0 mm 0.00 in/hr0.0 mm/hr 0.00 in0.0 mm
03:00 PM 44.6°F7.0°C 24.0°F-4.4°C 44% 7.5 mph NW12.1 kmh NW 12.1 mph19.5 kmh 30.16 in1021.3 mb 0.00 in0.0 mm 0.00 in/hr0.0 mm/hr 0.00 in0.0 mm
04:00 PM 43.3°F6.3°C 22.9°F-5.1°C 44% 8.4 mph WNW13.5 kmh WNW 12.1 mph19.5 kmh 30.16 in1021.3 mb 0.00 in0.0 mm 0.00 in/hr0.0 mm/hr 0.00 in0.0 mm
05:00 PM 41.5°F5.3°C 23.3°F-4.8°C 48% 5.0 mph NW8.0 kmh NW 7.6 mph12.2 kmh 30.16 in1021.3 mb 0.00 in0.0 mm 0.00 in/hr0.0 mm/hr 0.00 in0.0 mm
06:00 PM 40.5°F4.7°C 23.3°F-4.8°C 50% 3.6 mph NW5.8 kmh NW 6.3 mph10.1 kmh 30.17 in1021.7 mb 0.00 in0.0 mm 0.00 in/hr0.0 mm/hr 0.00 in0.0 mm
07:00 PM 39.2°F4.0°C 23.5°F-4.7°C 53% 0.9 mph N1.4 kmh N 1.6 mph2.6 kmh 30.17 in1021.7 mb 0.00 in0.0 mm 0.00 in/hr0.0 mm/hr 0.00 in0.0 mm
08:00 PM 37.8°F3.2°C 23.9°F-4.5°C 57% 1.2 mph N1.9 kmh N 2.7 mph4.3 kmh 30.18 in1022.0 mb 0.00 in0.0 mm 0.00 in/hr0.0 mm/hr 0.00 in0.0 mm
09:00 PM 36.3°F2.4°C 23.3°F-4.8°C 59% 0.2 mph NW0.3 kmh NW 1.3 mph2.1 kmh 30.18 in1022.0 mb 0.00 in0.0 mm 0.00 in/hr0.0 mm/hr 0.00 in0.0 mm
10:00 PM 34.9°F1.6°C 23.2°F-4.9°C 62% 0.9 mph NNW1.4 kmh NNW 3.1 mph5.0 kmh 30.17 in1021.7 mb 0.00 in0.0 mm 0.00 in/hr0.0 mm/hr 0.00 in0.0 mm
11:00 PM 33.4°F0.8°C 22.2°F-5.4°C 63% 0.2 mph NNE0.3 kmh NNE 0.9 mph1.4 kmh 30.19 in1022.4 mb 0.00 in0.0 mm 0.00 in/hr0.0 mm/hr 0.00 in0.0 mm